sensor_id;sensor_type;location;lat;lon;timestamp;P1;durP1;ratioP1;P2;durP2;ratioP2
10094;SDS011;5086;50.830;7.102;2023-05-15T00:01:33;5.20;;;3.80;;
10094;SDS011;5086;50.830;7.102;2023-05-15T00:04:05;7.78;;;4.10;;
10094;SDS011;5086;50.830;7.102;2023-05-15T00:06:32;6.60;;;3.92;;
10094;SDS011;5086;50.830;7.102;2023-05-15T00:09:03;9.45;;;4.32;;
10094;SDS011;5086;50.830;7.102;2023-05-15T00:11:32;6.75;;;4.30;;
10094;SDS011;5086;50.830;7.102;2023-05-15T00:13:58;8.02;;;4.88;;
10094;SDS011;5086;50.830;7.102;2023-05-15T00:16:27;7.95;;;4.78;;
10094;SDS011;5086;50.830;7.102;2023-05-15T00:18:57;7.53;;;4.10;;
10094;SDS011;5086;50.830;7.102;2023-05-15T00:21:24;7.88;;;3.45;;
10094;SDS011;5086;50.830;7.102;2023-05-15T00:23:51;10.32;;;4.40;;
10094;SDS011;5086;50.830;7.102;2023-05-15T00:26:18;6.57;;;3.78;;
10094;SDS011;5086;50.830;7.102;2023-05-15T00:28:48;7.70;;;4.28;;
10094;SDS011;5086;50.830;7.102;2023-05-15T00:31:15;5.63;;;3.90;;
10094;SDS011;5086;50.830;7.102;2023-05-15T00:33:45;7.40;;;3.78;;
10094;SDS011;5086;50.830;7.102;2023-05-15T00:36:12;6.18;;;4.10;;
10094;SDS011;5086;50.830;7.102;2023-05-15T00:38:39;8.13;;;3.97;;
10094;SDS011;5086;50.830;7.102;2023-05-15T00:41:06;8.27;;;4.00;;
10094;SDS011;5086;50.830;7.102;2023-05-15T00:43:35;5.63;;;4.10;;
10094;SDS011;5086;50.830;7.102;2023-05-15T00:46:05;6.95;;;3.85;;
10094;SDS011;5086;50.830;7.102;2023-05-15T00:48:32;5.63;;;3.90;;
10094;SDS011;5086;50.830;7.102;2023-05-15T00:51:05;5.63;;;3.75;;
10094;SDS011;5086;50.830;7.102;2023-05-15T00:53:31;7.72;;;4.40;;
10094;SDS011;5086;50.830;7.102;2023-05-15T00:55:58;5.35;;;3.83;;
10094;SDS011;5086;50.830;7.102;2023-05-15T00:58:27;8.00;;;4.15;;
10094;SDS011;5086;50.830;7.102;2023-05-15T01:00:58;9.15;;;4.50;;
10094;SDS011;5086;50.830;7.102;2023-05-15T01:03:29;7.63;;;4.25;;
10094;SDS011;5086;50.830;7.102;2023-05-15T01:05:56;7.97;;;4.65;;
10094;SDS011;5086;50.830;7.102;2023-05-15T01:08:25;6.18;;;3.80;;
10094;SDS011;5086;50.830;7.102;2023-05-15T01:10:57;8.20;;;4.43;;
10094;SDS011;5086;50.830;7.102;2023-05-15T01:13:25;10.38;;;4.78;;
10094;SDS011;5086;50.830;7.102;2023-05-15T01:15:55;7.45;;;4.80;;
10094;SDS011;5086;50.830;7.102;2023-05-15T01:18:22;6.10;;;4.00;;
10094;SDS011;5086;50.830;7.102;2023-05-15T01:21:26;8.40;;;5.20;;
10094;SDS011;5086;50.830;7.102;2023-05-15T01:24:15;8.00;;;4.78;;
10094;SDS011;5086;50.830;7.102;2023-05-15T01:27:03;14.65;;;4.85;;
10094;SDS011;5086;50.830;7.102;2023-05-15T01:29:35;12.70;;;5.60;;
10094;SDS011;5086;50.830;7.102;2023-05-15T01:32:17;7.95;;;5.18;;
10094;SDS011;5086;50.830;7.102;2023-05-15T01:34:56;8.63;;;5.13;;
10094;SDS011;5086;50.830;7.102;2023-05-15T01:37:29;8.48;;;5.63;;
10094;SDS011;5086;50.830;7.102;2023-05-15T01:40:02;10.65;;;5.70;;
10094;SDS011;5086;50.830;7.102;2023-05-15T01:42:53;14.25;;;6.30;;
10094;SDS011;5086;50.830;7.102;2023-05-15T01:45:22;10.20;;;6.30;;
10094;SDS011;5086;50.830;7.102;2023-05-15T01:47:55;16.17;;;7.88;;
10094;SDS011;5086;50.830;7.102;2023-05-15T01:50:28;14.27;;;8.13;;
10094;SDS011;5086;50.830;7.102;2023-05-15T01:52:57;13.65;;;7.05;;
10094;SDS011;5086;50.830;7.102;2023-05-15T01:55:27;15.02;;;7.68;;
10094;SDS011;5086;50.830;7.102;2023-05-15T01:58:00;19.50;;;8.50;;
10094;SDS011;5086;50.830;7.102;2023-05-15T02:00:27;15.05;;;7.95;;
10094;SDS011;5086;50.830;7.102;2023-05-15T02:02:58;13.90;;;7.70;;
10094;SDS011;5086;50.830;7.102;2023-05-15T02:05:30;15.60;;;7.78;;
10094;SDS011;5086;50.830;7.102;2023-05-15T02:08:11;16.23;;;7.35;;
10094;SDS011;5086;50.830;7.102;2023-05-15T02:10:39;13.38;;;7.80;;
10094;SDS011;5086;50.830;7.102;2023-05-15T02:13:09;17.27;;;9.50;;
10094;SDS011;5086;50.830;7.102;2023-05-15T02:15:37;20.88;;;10.68;;
10094;SDS011;5086;50.830;7.102;2023-05-15T02:18:22;15.00;;;8.55;;
10094;SDS011;5086;50.830;7.102;2023-05-15T02:20:48;17.88;;;7.70;;
10094;SDS011;5086;50.830;7.102;2023-05-15T02:23:15;12.93;;;7.57;;
10094;SDS011;5086;50.830;7.102;2023-05-15T02:25:45;12.55;;;6.78;;
10094;SDS011;5086;50.830;7.102;2023-05-15T02:28:22;15.25;;;7.47;;
10094;SDS011;5086;50.830;7.102;2023-05-15T02:30:54;17.67;;;8.07;;
10094;SDS011;5086;50.830;7.102;2023-05-15T02:33:28;22.70;;;9.63;;
10094;SDS011;5086;50.830;7.102;2023-05-15T02:36:01;16.88;;;8.40;;
10094;SDS011;5086;50.830;7.102;2023-05-15T02:38:32;30.48;;;11.27;;
10094;SDS011;5086;50.830;7.102;2023-05-15T02:41:02;22.73;;;11.63;;
10094;SDS011;5086;50.830;7.102;2023-05-15T02:43:32;30.20;;;10.77;;
10094;SDS011;5086;50.830;7.102;2023-05-15T02:46:04;20.88;;;9.80;;
10094;SDS011;5086;50.830;7.102;2023-05-15T02:48:32;32.40;;;12.73;;
10094;SDS011;5086;50.830;7.102;2023-05-15T02:51:00;31.65;;;12.85;;
10094;SDS011;5086;50.830;7.102;2023-05-15T02:53:27;29.60;;;11.90;;
10094;SDS011;5086;50.830;7.102;2023-05-15T02:55:55;40.00;;;13.35;;
10094;SDS011;5086;50.830;7.102;2023-05-15T02:58:21;37.25;;;14.60;;
10094;SDS011;5086;50.830;7.102;2023-05-15T03:00:50;36.22;;;13.32;;
10094;SDS011;5086;50.830;7.102;2023-05-15T03:03:16;34.33;;;14.60;;
10094;SDS011;5086;50.830;7.102;2023-05-15T03:05:43;44.85;;;15.40;;
10094;SDS011;5086;50.830;7.102;2023-05-15T03:08:10;39.03;;;15.40;;
10094;SDS011;5086;50.830;7.102;2023-05-15T03:10:37;52.90;;;18.05;;
10094;SDS011;5086;50.830;7.102;2023-05-15T03:13:05;52.42;;;20.15;;
10094;SDS011;5086;50.830;7.102;2023-05-15T03:15:32;44.45;;;17.00;;
10094;SDS011;5086;50.830;7.102;2023-05-15T03:18:01;52.88;;;18.73;;
10094;SDS011;5086;50.830;7.102;2023-05-15T03:20:27;52.60;;;19.85;;
10094;SDS011;5086;50.830;7.102;2023-05-15T03:22:54;45.25;;;17.77;;
10094;SDS011;5086;50.830;7.102;2023-05-15T03:25:21;48.72;;;17.20;;
10094;SDS011;5086;50.830;7.102;2023-05-15T03:27:48;56.67;;;19.55;;
10094;SDS011;5086;50.830;7.102;2023-05-15T03:30:15;47.00;;;19.15;;
10094;SDS011;5086;50.830;7.102;2023-05-15T03:32:44;49.33;;;19.02;;
10094;SDS011;5086;50.830;7.102;2023-05-15T03:35:13;52.70;;;18.70;;
10094;SDS011;5086;50.830;7.102;2023-05-15T03:37:40;55.03;;;20.02;;
10094;SDS011;5086;50.830;7.102;2023-05-15T03:40:07;53.55;;;19.02;;
10094;SDS011;5086;50.830;7.102;2023-05-15T03:42:35;57.42;;;20.02;;
10094;SDS011;5086;50.830;7.102;2023-05-15T03:45:02;50.72;;;19.40;;
10094;SDS011;5086;50.830;7.102;2023-05-15T03:47:29;59.22;;;21.10;;
10094;SDS011;5086;50.830;7.102;2023-05-15T03:49:56;63.47;;;20.83;;
10094;SDS011;5086;50.830;7.102;2023-05-15T03:52:24;71.55;;;19.95;;
10094;SDS011;5086;50.830;7.102;2023-05-15T03:54:51;59.40;;;23.15;;
10094;SDS011;5086;50.830;7.102;2023-05-15T03:57:18;58.47;;;20.77;;
10094;SDS011;5086;50.830;7.102;2023-05-15T03:59:45;66.72;;;23.40;;
10094;SDS011;5086;50.830;7.102;2023-05-15T04:02:12;64.35;;;22.33;;
10094;SDS011;5086;50.830;7.102;2023-05-15T04:04:39;62.45;;;21.25;;
10094;SDS011;5086;50.830;7.102;2023-05-15T04:07:08;62.22;;;22.02;;
10094;SDS011;5086;50.830;7.102;2023-05-15T04:09:36;59.50;;;20.23;;
10094;SDS011;5086;50.830;7.102;2023-05-15T04:12:05;64.82;;;22.55;;
10094;SDS011;5086;50.830;7.102;2023-05-15T04:14:33;53.72;;;19.73;;
10094;SDS011;5086;50.830;7.102;2023-05-15T04:16:59;68.18;;;21.55;;
10094;SDS011;5086;50.830;7.102;2023-05-15T04:19:26;64.45;;;20.05;;
10094;SDS011;5086;50.830;7.102;2023-05-15T04:21:53;57.80;;;21.83;;
10094;SDS011;5086;50.830;7.102;2023-05-15T04:24:20;63.05;;;21.27;;
10094;SDS011;5086;50.830;7.102;2023-05-15T04:26:50;53.35;;;20.00;;
10094;SDS011;5086;50.830;7.102;2023-05-15T04:29:17;61.88;;;20.75;;
10094;SDS011;5086;50.830;7.102;2023-05-15T04:31:44;68.57;;;23.08;;
10094;SDS011;5086;50.830;7.102;2023-05-15T04:34:11;61.10;;;21.77;;
10094;SDS011;5086;50.830;7.102;2023-05-15T04:36:38;54.80;;;21.08;;
10094;SDS011;5086;50.830;7.102;2023-05-15T04:39:07;67.22;;;21.13;;
10094;SDS011;5086;50.830;7.102;2023-05-15T04:41:34;63.30;;;23.17;;
10094;SDS011;5086;50.830;7.102;2023-05-15T04:44:05;59.65;;;21.50;;
10094;SDS011;5086;50.830;7.102;2023-05-15T04:46:32;60.25;;;22.45;;
10094;SDS011;5086;50.830;7.102;2023-05-15T04:49:03;53.25;;;21.08;;
10094;SDS011;5086;50.830;7.102;2023-05-15T04:51:31;60.17;;;21.92;;
10094;SDS011;5086;50.830;7.102;2023-05-15T04:53:59;63.75;;;22.67;;
10094;SDS011;5086;50.830;7.102;2023-05-15T04:56:30;67.22;;;22.83;;
10094;SDS011;5086;50.830;7.102;2023-05-15T04:58:58;64.20;;;23.05;;
10094;SDS011;5086;50.830;7.102;2023-05-15T05:01:29;67.45;;;22.90;;
10094;SDS011;5086;50.830;7.102;2023-05-15T05:03:56;62.53;;;22.65;;
10094;SDS011;5086;50.830;7.102;2023-05-15T05:06:23;58.85;;;21.38;;
10094;SDS011;5086;50.830;7.102;2023-05-15T05:08:51;63.38;;;20.33;;
10094;SDS011;5086;50.830;7.102;2023-05-15T05:11:19;64.18;;;22.58;;
10094;SDS011;5086;50.830;7.102;2023-05-15T05:13:47;65.70;;;22.10;;
10094;SDS011;5086;50.830;7.102;2023-05-15T05:16:14;64.57;;;22.70;;
10094;SDS011;5086;50.830;7.102;2023-05-15T05:18:43;53.83;;;21.58;;
10094;SDS011;5086;50.830;7.102;2023-05-15T05:21:11;61.38;;;24.00;;
10094;SDS011;5086;50.830;7.102;2023-05-15T05:23:38;62.38;;;21.38;;
10094;SDS011;5086;50.830;7.102;2023-05-15T05:26:08;65.55;;;22.75;;
10094;SDS011;5086;50.830;7.102;2023-05-15T05:28:37;63.42;;;23.02;;
10094;SDS011;5086;50.830;7.102;2023-05-15T05:31:04;57.65;;;20.83;;
10094;SDS011;5086;50.830;7.102;2023-05-15T05:33:32;57.10;;;19.17;;
10094;SDS011;5086;50.830;7.102;2023-05-15T05:36:03;53.17;;;20.70;;
10094;SDS011;5086;50.830;7.102;2023-05-15T05:38:30;64.50;;;23.15;;
10094;SDS011;5086;50.830;7.102;2023-05-15T05:40:57;56.70;;;22.25;;
10094;SDS011;5086;50.830;7.102;2023-05-15T05:43:25;53.20;;;21.00;;
10094;SDS011;5086;50.830;7.102;2023-05-15T05:45:52;56.63;;;21.98;;
10094;SDS011;5086;50.830;7.102;2023-05-15T05:48:22;58.33;;;19.77;;
10094;SDS011;5086;50.830;7.102;2023-05-15T05:50:51;62.63;;;21.17;;
10094;SDS011;5086;50.830;7.102;2023-05-15T05:53:21;62.83;;;22.58;;
10094;SDS011;5086;50.830;7.102;2023-05-15T05:55:48;58.83;;;21.92;;
10094;SDS011;5086;50.830;7.102;2023-05-15T05:58:15;66.70;;;23.35;;
10094;SDS011;5086;50.830;7.102;2023-05-15T06:00:43;65.75;;;23.33;;
10094;SDS011;5086;50.830;7.102;2023-05-15T06:03:14;49.60;;;18.60;;
10094;SDS011;5086;50.830;7.102;2023-05-15T06:05:44;52.47;;;17.85;;
10094;SDS011;5086;50.830;7.102;2023-05-15T06:08:14;58.88;;;22.67;;
10094;SDS011;5086;50.830;7.102;2023-05-15T06:10:42;70.10;;;24.88;;
10094;SDS011;5086;50.830;7.102;2023-05-15T06:13:09;64.40;;;23.25;;
10094;SDS011;5086;50.830;7.102;2023-05-15T06:15:38;61.75;;;22.83;;
10094;SDS011;5086;50.830;7.102;2023-05-15T06:18:05;70.25;;;24.52;;
10094;SDS011;5086;50.830;7.102;2023-05-15T06:20:32;67.82;;;25.20;;
10094;SDS011;5086;50.830;7.102;2023-05-15T06:22:59;64.50;;;23.98;;
10094;SDS011;5086;50.830;7.102;2023-05-15T06:25:26;63.03;;;23.38;;
10094;SDS011;5086;50.830;7.102;2023-05-15T06:27:54;70.50;;;25.88;;
10094;SDS011;5086;50.830;7.102;2023-05-15T06:30:21;60.20;;;22.35;;
10094;SDS011;5086;50.830;7.102;2023-05-15T06:32:48;69.88;;;23.98;;
10094;SDS011;5086;50.830;7.102;2023-05-15T06:35:15;58.03;;;22.70;;
10094;SDS011;5086;50.830;7.102;2023-05-15T06:37:42;58.53;;;20.98;;
10094;SDS011;5086;50.830;7.102;2023-05-15T06:40:09;59.40;;;23.27;;
10094;SDS011;5086;50.830;7.102;2023-05-15T06:42:36;66.93;;;22.48;;
10094;SDS011;5086;50.830;7.102;2023-05-15T06:45:09;65.35;;;23.73;;
10094;SDS011;5086;50.830;7.102;2023-05-15T06:47:36;54.28;;;19.55;;
10094;SDS011;5086;50.830;7.102;2023-05-15T06:50:05;62.83;;;22.45;;
10094;SDS011;5086;50.830;7.102;2023-05-15T06:52:35;45.13;;;19.10;;
10094;SDS011;5086;50.830;7.102;2023-05-15T06:55:04;56.15;;;24.23;;
10094;SDS011;5086;50.830;7.102;2023-05-15T06:57:41;58.92;;;22.27;;
10094;SDS011;5086;50.830;7.102;2023-05-15T07:00:10;54.72;;;20.83;;
10094;SDS011;5086;50.830;7.102;2023-05-15T07:02:42;64.38;;;23.48;;
10094;SDS011;5086;50.830;7.102;2023-05-15T07:05:12;53.22;;;20.23;;
10094;SDS011;5086;50.830;7.102;2023-05-15T07:07:40;53.67;;;20.92;;
10094;SDS011;5086;50.830;7.102;2023-05-15T07:10:14;64.65;;;22.50;;
10094;SDS011;5086;50.830;7.102;2023-05-15T07:12:45;55.15;;;20.50;;
10094;SDS011;5086;50.830;7.102;2023-05-15T07:21:52;46.53;;;19.55;;
10094;SDS011;5086;50.830;7.102;2023-05-15T07:25:14;52.42;;;21.05;;
10094;SDS011;5086;50.830;7.102;2023-05-15T07:27:41;58.88;;;22.35;;
10094;SDS011;5086;50.830;7.102;2023-05-15T07:30:10;60.55;;;23.50;;
10094;SDS011;5086;50.830;7.102;2023-05-15T07:32:41;51.65;;;19.98;;
10094;SDS011;5086;50.830;7.102;2023-05-15T07:35:15;66.53;;;22.23;;
10094;SDS011;5086;50.830;7.102;2023-05-15T07:37:44;57.88;;;21.88;;
10094;SDS011;5086;50.830;7.102;2023-05-15T07:40:14;54.58;;;21.67;;
10094;SDS011;5086;50.830;7.102;2023-05-15T07:42:42;64.78;;;22.98;;
10094;SDS011;5086;50.830;7.102;2023-05-15T07:45:18;57.08;;;22.65;;
10094;SDS011;5086;50.830;7.102;2023-05-15T07:47:56;56.22;;;23.15;;
10094;SDS011;5086;50.830;7.102;2023-05-15T07:50:31;55.28;;;21.58;;
10094;SDS011;5086;50.830;7.102;2023-05-15T07:53:10;53.03;;;19.70;;
10094;SDS011;5086;50.830;7.102;2023-05-15T07:55:57;63.50;;;21.73;;
10094;SDS011;5086;50.830;7.102;2023-05-15T07:58:29;57.03;;;22.38;;
10094;SDS011;5086;50.830;7.102;2023-05-15T08:01:01;52.50;;;21.05;;
10094;SDS011;5086;50.830;7.102;2023-05-15T08:03:28;57.45;;;21.55;;
10094;SDS011;5086;50.830;7.102;2023-05-15T08:09:09;55.10;;;20.90;;
10094;SDS011;5086;50.830;7.102;2023-05-15T08:11:36;54.00;;;22.55;;
10094;SDS011;5086;50.830;7.102;2023-05-15T08:14:03;65.53;;;24.52;;
10094;SDS011;5086;50.830;7.102;2023-05-15T08:16:30;58.35;;;22.25;;
10094;SDS011;5086;50.830;7.102;2023-05-15T08:18:57;63.88;;;22.63;;
10094;SDS011;5086;50.830;7.102;2023-05-15T08:21:30;57.65;;;24.15;;
10094;SDS011;5086;50.830;7.102;2023-05-15T08:23:57;62.00;;;23.00;;
10094;SDS011;5086;50.830;7.102;2023-05-15T08:26:26;67.68;;;21.40;;
10094;SDS011;5086;50.830;7.102;2023-05-15T08:29:03;57.35;;;21.95;;
10094;SDS011;5086;50.830;7.102;2023-05-15T08:31:32;56.72;;;22.15;;
10094;SDS011;5086;50.830;7.102;2023-05-15T08:34:27;49.15;;;19.45;;
10094;SDS011;5086;50.830;7.102;2023-05-15T08:36:55;56.55;;;21.35;;
10094;SDS011;5086;50.830;7.102;2023-05-15T08:39:25;58.33;;;21.60;;
10094;SDS011;5086;50.830;7.102;2023-05-15T08:41:57;59.22;;;22.45;;
10094;SDS011;5086;50.830;7.102;2023-05-15T08:44:31;48.63;;;20.08;;
10094;SDS011;5086;50.830;7.102;2023-05-15T08:46:59;65.60;;;24.38;;
10094;SDS011;5086;50.830;7.102;2023-05-15T08:49:35;54.00;;;21.85;;
10094;SDS011;5086;50.830;7.102;2023-05-15T08:52:16;62.78;;;24.10;;
10094;SDS011;5086;50.830;7.102;2023-05-15T08:54:44;53.58;;;21.15;;
10094;SDS011;5086;50.830;7.102;2023-05-15T08:57:14;60.22;;;23.27;;
10094;SDS011;5086;50.830;7.102;2023-05-15T08:59:42;49.75;;;22.50;;
10094;SDS011;5086;50.830;7.102;2023-05-15T09:02:10;54.90;;;21.30;;
10094;SDS011;5086;50.830;7.102;2023-05-15T09:04:36;62.10;;;22.25;;
10094;SDS011;5086;50.830;7.102;2023-05-15T09:07:03;55.28;;;23.30;;
10094;SDS011;5086;50.830;7.102;2023-05-15T09:09:37;58.28;;;23.10;;
10094;SDS011;5086;50.830;7.102;2023-05-15T09:18:27;58.42;;;23.85;;
10094;SDS011;5086;50.830;7.102;2023-05-15T09:21:37;51.67;;;21.52;;
10094;SDS011;5086;50.830;7.102;2023-05-15T09:26:30;50.58;;;21.15;;
10094;SDS011;5086;50.830;7.102;2023-05-15T09:27:39;60.60;;;21.90;;
10094;SDS011;5086;50.830;7.102;2023-05-15T09:30:16;49.88;;;21.27;;
10094;SDS011;5086;50.830;7.102;2023-05-15T09:36:08;54.47;;;22.80;;
10094;SDS011;5086;50.830;7.102;2023-05-15T09:38:39;55.28;;;23.17;;
10094;SDS011;5086;50.830;7.102;2023-05-15T09:41:12;54.25;;;22.13;;
10094;SDS011;5086;50.830;7.102;2023-05-15T09:43:39;57.28;;;24.00;;
10094;SDS011;5086;50.830;7.102;2023-05-15T09:46:13;53.30;;;22.70;;
10094;SDS011;5086;50.830;7.102;2023-05-15T09:49:16;56.00;;;22.15;;
10094;SDS011;5086;50.830;7.102;2023-05-15T09:51:48;49.72;;;21.48;;
10094;SDS011;5086;50.830;7.102;2023-05-15T09:54:20;56.08;;;21.45;;
10094;SDS011;5086;50.830;7.102;2023-05-15T09:56:55;48.78;;;21.50;;
10094;SDS011;5086;50.830;7.102;2023-05-15T09:59:34;44.08;;;20.25;;
10094;SDS011;5086;50.830;7.102;2023-05-15T10:02:06;49.22;;;20.80;;
10094;SDS011;5086;50.830;7.102;2023-05-15T10:04:35;43.40;;;19.83;;
10094;SDS011;5086;50.830;7.102;2023-05-15T10:07:02;45.95;;;19.42;;
10094;SDS011;5086;50.830;7.102;2023-05-15T10:09:32;41.35;;;20.13;;
10094;SDS011;5086;50.830;7.102;2023-05-15T10:12:02;48.70;;;20.63;;
10094;SDS011;5086;50.830;7.102;2023-05-15T10:14:32;43.22;;;19.25;;
10094;SDS011;5086;50.830;7.102;2023-05-15T10:17:00;49.85;;;20.83;;
10094;SDS011;5086;50.830;7.102;2023-05-15T10:19:27;43.60;;;19.25;;
10094;SDS011;5086;50.830;7.102;2023-05-15T10:22:00;42.90;;;19.20;;
10094;SDS011;5086;50.830;7.102;2023-05-15T10:24:28;40.17;;;18.92;;
10094;SDS011;5086;50.830;7.102;2023-05-15T10:27:00;43.53;;;20.45;;
10094;SDS011;5086;50.830;7.102;2023-05-15T10:29:28;46.85;;;18.38;;
10094;SDS011;5086;50.830;7.102;2023-05-15T10:32:05;41.60;;;18.45;;
10094;SDS011;5086;50.830;7.102;2023-05-15T10:34:44;42.50;;;19.25;;
10094;SDS011;5086;50.830;7.102;2023-05-15T10:37:22;37.88;;;18.08;;
10094;SDS011;5086;50.830;7.102;2023-05-15T10:39:58;45.00;;;19.33;;
10094;SDS011;5086;50.830;7.102;2023-05-15T10:42:29;39.00;;;18.75;;
10094;SDS011;5086;50.830;7.102;2023-05-15T10:44:57;39.20;;;16.85;;
10094;SDS011;5086;50.830;7.102;2023-05-15T10:47:32;37.83;;;16.00;;
10094;SDS011;5086;50.830;7.102;2023-05-15T10:50:07;40.70;;;18.13;;
10094;SDS011;5086;50.830;7.102;2023-05-15T10:52:39;37.00;;;18.63;;
10094;SDS011;5086;50.830;7.102;2023-05-15T10:55:07;38.30;;;18.17;;
10094;SDS011;5086;50.830;7.102;2023-05-15T10:57:39;46.28;;;19.05;;
10094;SDS011;5086;50.830;7.102;2023-05-15T11:02:57;35.88;;;16.85;;
10094;SDS011;5086;50.830;7.102;2023-05-15T11:05:26;34.95;;;16.10;;
10094;SDS011;5086;50.830;7.102;2023-05-15T11:10:53;34.10;;;16.52;;
10094;SDS011;5086;50.830;7.102;2023-05-15T11:13:22;35.25;;;16.38;;
10094;SDS011;5086;50.830;7.102;2023-05-15T11:15:54;38.80;;;16.05;;
10094;SDS011;5086;50.830;7.102;2023-05-15T11:18:23;26.55;;;13.40;;
10094;SDS011;5086;50.830;7.102;2023-05-15T11:21:06;29.90;;;13.45;;
10094;SDS011;5086;50.830;7.102;2023-05-15T11:23:40;30.73;;;13.65;;
10094;SDS011;5086;50.830;7.102;2023-05-15T11:26:07;19.60;;;11.00;;
10094;SDS011;5086;50.830;7.102;2023-05-15T11:28:41;23.77;;;11.60;;
10094;SDS011;5086;50.830;7.102;2023-05-15T11:31:20;17.30;;;9.70;;
10094;SDS011;5086;50.830;7.102;2023-05-15T11:33:55;18.33;;;9.98;;
10094;SDS011;5086;50.830;7.102;2023-05-15T11:36:29;20.15;;;9.45;;
10094;SDS011;5086;50.830;7.102;2023-05-15T11:39:06;18.67;;;10.02;;
10094;SDS011;5086;50.830;7.102;2023-05-15T11:41:38;25.65;;;10.45;;
10094;SDS011;5086;50.830;7.102;2023-05-15T11:44:05;21.05;;;11.05;;
10094;SDS011;5086;50.830;7.102;2023-05-15T11:46:32;19.33;;;10.30;;
10094;SDS011;5086;50.830;7.102;2023-05-15T11:49:03;22.98;;;10.90;;
10094;SDS011;5086;50.830;7.102;2023-05-15T11:51:42;19.50;;;10.23;;
10094;SDS011;5086;50.830;7.102;2023-05-15T11:54:10;19.98;;;8.93;;
10094;SDS011;5086;50.830;7.102;2023-05-15T11:56:40;17.77;;;7.80;;
10094;SDS011;5086;50.830;7.102;2023-05-15T11:59:08;16.08;;;8.27;;
10094;SDS011;5086;50.830;7.102;2023-05-15T12:01:39;15.93;;;7.63;;
10094;SDS011;5086;50.830;7.102;2023-05-15T12:04:12;20.23;;;7.10;;
10094;SDS011;5086;50.830;7.102;2023-05-15T12:06:51;13.27;;;6.67;;
10094;SDS011;5086;50.830;7.102;2023-05-15T12:12:17;13.27;;;7.20;;
10094;SDS011;5086;50.830;7.102;2023-05-15T12:14:50;18.67;;;8.48;;
10094;SDS011;5086;50.830;7.102;2023-05-15T12:17:22;15.50;;;7.90;;
10094;SDS011;5086;50.830;7.102;2023-05-15T12:19:57;17.17;;;9.63;;
10094;SDS011;5086;50.830;7.102;2023-05-15T12:22:25;15.20;;;8.13;;
10094;SDS011;5086;50.830;7.102;2023-05-15T12:24:52;14.73;;;8.30;;
10094;SDS011;5086;50.830;7.102;2023-05-15T12:27:25;17.03;;;9.00;;
10094;SDS011;5086;50.830;7.102;2023-05-15T12:29:52;16.20;;;8.03;;
10094;SDS011;5086;50.830;7.102;2023-05-15T12:32:19;13.43;;;7.17;;
10094;SDS011;5086;50.830;7.102;2023-05-15T12:34:46;12.07;;;7.40;;
10094;SDS011;5086;50.830;7.102;2023-05-15T12:37:19;14.40;;;7.43;;
10094;SDS011;5086;50.830;7.102;2023-05-15T12:39:52;14.73;;;8.20;;
10094;SDS011;5086;50.830;7.102;2023-05-15T12:42:20;12.27;;;7.55;;
10094;SDS011;5086;50.830;7.102;2023-05-15T12:44:51;10.37;;;6.33;;
10094;SDS011;5086;50.830;7.102;2023-05-15T12:47:22;11.53;;;5.50;;
10094;SDS011;5086;50.830;7.102;2023-05-15T12:49:54;9.77;;;5.43;;
10094;SDS011;5086;50.830;7.102;2023-05-15T12:52:22;9.13;;;5.77;;
10094;SDS011;5086;50.830;7.102;2023-05-15T12:54:50;11.83;;;6.40;;
10094;SDS011;5086;50.830;7.102;2023-05-15T12:57:19;12.33;;;6.30;;
10094;SDS011;5086;50.830;7.102;2023-05-15T12:59:46;9.40;;;6.00;;
10094;SDS011;5086;50.830;7.102;2023-05-15T13:02:15;12.00;;;5.97;;
10094;SDS011;5086;50.830;7.102;2023-05-15T13:04:44;12.90;;;5.30;;
10094;SDS011;5086;50.830;7.102;2023-05-15T13:07:13;11.90;;;5.97;;
10094;SDS011;5086;50.830;7.102;2023-05-15T13:09:42;9.83;;;5.23;;
10094;SDS011;5086;50.830;7.102;2023-05-15T13:12:11;8.60;;;5.37;;
10094;SDS011;5086;50.830;7.102;2023-05-15T13:14:38;9.23;;;5.38;;
10094;SDS011;5086;50.830;7.102;2023-05-15T13:17:20;8.80;;;4.73;;
10094;SDS011;5086;50.830;7.102;2023-05-15T13:19:47;12.87;;;6.50;;
10094;SDS011;5086;50.830;7.102;2023-05-15T13:22:17;9.27;;;5.30;;
10094;SDS011;5086;50.830;7.102;2023-05-15T13:24:46;9.73;;;5.60;;
10094;SDS011;5086;50.830;7.102;2023-05-15T13:27:18;10.40;;;5.97;;
10094;SDS011;5086;50.830;7.102;2023-05-15T13:29:48;8.53;;;5.80;;
10094;SDS011;5086;50.830;7.102;2023-05-15T13:32:30;11.27;;;5.77;;
10094;SDS011;5086;50.830;7.102;2023-05-15T13:34:57;9.23;;;5.70;;
10094;SDS011;5086;50.830;7.102;2023-05-15T13:37:27;10.17;;;5.40;;
10094;SDS011;5086;50.830;7.102;2023-05-15T13:39:56;7.23;;;4.87;;
10094;SDS011;5086;50.830;7.102;2023-05-15T13:42:26;8.73;;;5.47;;
10094;SDS011;5086;50.830;7.102;2023-05-15T13:44:55;8.00;;;5.90;;
10094;SDS011;5086;50.830;7.102;2023-05-15T13:47:24;10.80;;;4.87;;
10094;SDS011;5086;50.830;7.102;2023-05-15T13:49:51;9.23;;;5.90;;
10094;SDS011;5086;50.830;7.102;2023-05-15T13:52:21;11.57;;;5.50;;
10094;SDS011;5086;50.830;7.102;2023-05-15T13:54:48;13.33;;;6.53;;
10094;SDS011;5086;50.830;7.102;2023-05-15T13:57:16;8.93;;;5.50;;
10094;SDS011;5086;50.830;7.102;2023-05-15T13:59:49;13.30;;;6.85;;
10094;SDS011;5086;50.830;7.102;2023-05-15T14:02:16;9.73;;;6.43;;
10094;SDS011;5086;50.830;7.102;2023-05-15T14:04:45;11.50;;;6.07;;
10094;SDS011;5086;50.830;7.102;2023-05-15T14:07:16;10.53;;;6.43;;
10094;SDS011;5086;50.830;7.102;2023-05-15T14:09:43;13.77;;;6.70;;
10094;SDS011;5086;50.830;7.102;2023-05-15T14:12:14;11.43;;;5.83;;
10094;SDS011;5086;50.830;7.102;2023-05-15T14:14:49;12.33;;;5.60;;
10094;SDS011;5086;50.830;7.102;2023-05-15T14:17:29;10.13;;;5.20;;
10094;SDS011;5086;50.830;7.102;2023-05-15T14:19:57;7.17;;;4.77;;
10094;SDS011;5086;50.830;7.102;2023-05-15T14:22:28;14.03;;;6.17;;
10094;SDS011;5086;50.830;7.102;2023-05-15T14:25:01;15.30;;;5.83;;
10094;SDS011;5086;50.830;7.102;2023-05-15T14:27:30;9.70;;;5.00;;
10094;SDS011;5086;50.830;7.102;2023-05-15T14:29:59;12.60;;;5.63;;
10094;SDS011;5086;50.830;7.102;2023-05-15T14:32:26;10.30;;;5.23;;
10094;SDS011;5086;50.830;7.102;2023-05-15T14:34:54;7.63;;;5.25;;
10094;SDS011;5086;50.830;7.102;2023-05-15T14:37:25;10.23;;;5.70;;
10094;SDS011;5086;50.830;7.102;2023-05-15T14:39:55;7.70;;;4.87;;
10094;SDS011;5086;50.830;7.102;2023-05-15T14:42:59;5.45;;;4.10;;
10094;SDS011;5086;50.830;7.102;2023-05-15T14:45:23;9.20;;;4.60;;
10094;SDS011;5086;50.830;7.102;2023-05-15T14:47:53;8.70;;;5.53;;
10094;SDS011;5086;50.830;7.102;2023-05-15T14:50:20;13.70;;;5.65;;
10094;SDS011;5086;50.830;7.102;2023-05-15T14:52:48;8.07;;;4.60;;
10094;SDS011;5086;50.830;7.102;2023-05-15T14:55:19;10.43;;;5.87;;
10094;SDS011;5086;50.830;7.102;2023-05-15T14:57:49;13.67;;;5.70;;
10094;SDS011;5086;50.830;7.102;2023-05-15T15:00:17;15.63;;;6.50;;
10094;SDS011;5086;50.830;7.102;2023-05-15T15:02:53;13.93;;;8.10;;
10094;SDS011;5086;50.830;7.102;2023-05-15T15:05:20;15.10;;;8.67;;
10094;SDS011;5086;50.830;7.102;2023-05-15T15:10:50;18.80;;;10.32;;
10094;SDS011;5086;50.830;7.102;2023-05-15T15:13:43;30.93;;;11.03;;
10094;SDS011;5086;50.830;7.102;2023-05-15T15:16:12;20.30;;;10.13;;
10094;SDS011;5086;50.830;7.102;2023-05-15T15:18:44;21.92;;;11.05;;
10094;SDS011;5086;50.830;7.102;2023-05-15T15:21:11;20.73;;;10.15;;
10094;SDS011;5086;50.830;7.102;2023-05-15T15:23:42;22.80;;;12.35;;
10094;SDS011;5086;50.830;7.102;2023-05-15T15:26:10;20.35;;;9.63;;
10094;SDS011;5086;50.830;7.102;2023-05-15T15:28:37;22.05;;;10.45;;
10094;SDS011;5086;50.830;7.102;2023-05-15T15:31:07;16.25;;;9.52;;
10094;SDS011;5086;50.830;7.102;2023-05-15T15:33:36;17.67;;;9.93;;
10094;SDS011;5086;50.830;7.102;2023-05-15T15:36:06;19.95;;;9.45;;